createdAt,value
2019-04-10T00:01:06.435Z,29.83
2019-04-10T00:03:37.906Z,32.07
2019-04-10T00:06:05.125Z,29.67
2019-04-10T00:08:34.522Z,31.77
2019-04-10T00:11:04.740Z,29.20
2019-04-10T00:13:34.376Z,29.20
2019-04-10T00:16:03.621Z,31.20
2019-04-10T00:18:33.723Z,30.40
2019-04-10T00:21:02.957Z,32.50
2019-04-10T00:23:32.018Z,30.13
2019-04-10T00:26:01.441Z,29.73
2019-04-10T00:28:31.685Z,30.40
2019-04-10T00:31:01.842Z,30.47
2019-04-10T00:33:31.094Z,30.40
2019-04-10T00:35:59.996Z,31.27
2019-04-10T00:38:29.570Z,31.30
2019-04-10T00:40:59.535Z,31.40
2019-04-10T00:43:28.842Z,30.63
2019-04-10T00:45:58.330Z,31.97
2019-04-10T00:48:27.974Z,32.20
2019-04-10T00:50:57.160Z,33.70
2019-04-10T00:53:27.299Z,32.70
2019-04-10T00:55:56.443Z,36.00
2019-04-10T00:58:25.924Z,36.10
2019-04-10T01:00:55.155Z,36.73
2019-04-10T01:03:42.109Z,37.00
2019-04-10T01:06:11.543Z,34.50
2019-04-10T01:08:40.613Z,38.87
2019-04-10T01:11:10.594Z,39.17
2019-04-10T01:13:39.827Z,38.60
2019-04-10T01:16:09.206Z,41.00
2019-04-10T01:18:39.396Z,40.10
2019-04-10T01:21:08.692Z,39.80
2019-04-10T01:23:38.085Z,40.00
2019-04-10T01:26:07.438Z,43.30
2019-04-10T01:28:36.694Z,41.73
2019-04-10T01:31:06.774Z,43.93
2019-04-10T01:33:36.821Z,42.10
2019-04-10T01:36:06.836Z,42.30
2019-04-10T01:38:35.965Z,45.20
2019-04-10T01:41:05.758Z,42.37
2019-04-10T01:43:35.141Z,44.37
2019-04-10T01:46:04.230Z,45.37
2019-04-10T01:48:34.446Z,48.40
2019-04-10T01:51:03.462Z,46.20
2019-04-10T01:53:33.478Z,50.93
2019-04-10T01:56:03.103Z,53.00
2019-04-10T01:58:32.831Z,57.87
2019-04-10T02:01:08.129Z,55.70
2019-04-10T02:03:38.206Z,58.40
2019-04-10T02:06:07.416Z,62.10
2019-04-10T02:08:38.219Z,59.17
2019-04-10T02:11:07.319Z,62.93
2019-04-10T02:13:36.341Z,63.10
2019-04-10T02:16:06.203Z,64.00
2019-04-10T02:18:35.508Z,67.80
2019-04-10T02:21:04.845Z,68.87
2019-04-10T02:23:34.344Z,66.90
2019-04-10T02:26:03.442Z,73.30
2019-04-10T02:28:33.355Z,72.63
2019-04-10T02:31:02.922Z,72.57
2019-04-10T02:33:33.617Z,66.67
2019-04-10T02:36:03.754Z,70.47
2019-04-10T02:38:50.842Z,70.93
2019-04-10T02:41:05.716Z,74.57
2019-04-10T02:43:35.935Z,75.73
2019-04-10T02:46:06.433Z,69.80
2019-04-10T02:48:36.289Z,75.80
2019-04-10T02:51:05.672Z,74.70
2019-04-10T02:53:35.344Z,74.73
2019-04-10T02:56:05.394Z,75.80
2019-04-10T02:58:34.741Z,78.50
2019-04-10T03:01:03.734Z,78.77
2019-04-10T03:03:34.144Z,76.60
2019-04-10T03:06:04.938Z,75.73
2019-04-10T03:08:46.802Z,80.10
2019-04-10T03:11:08.644Z,78.60
2019-04-10T03:13:35.963Z,79.83
2019-04-10T03:16:05.613Z,76.67
2019-04-10T03:18:34.839Z,75.47
2019-04-10T03:21:04.865Z,72.03
2019-04-10T03:23:33.844Z,74.73
2019-04-10T03:26:03.541Z,78.80
2019-04-10T03:28:33.512Z,74.80
2019-04-10T03:31:04.843Z,73.97
2019-04-10T03:33:55.440Z,72.90
2019-04-10T03:36:26.176Z,75.10
2019-04-10T03:39:00.116Z,76.90
2019-04-10T03:41:26.149Z,71.50
2019-04-10T03:43:56.357Z,71.53
2019-04-10T03:46:25.682Z,74.30
2019-04-10T03:48:55.620Z,72.23
2019-04-10T03:51:24.871Z,69.67
2019-04-10T03:53:54.248Z,72.30
2019-04-10T03:56:23.465Z,72.23
2019-04-10T03:58:52.650Z,73.97
2019-04-10T04:01:21.524Z,70.70
2019-04-10T04:03:51.136Z,69.30
2019-04-10T04:06:20.389Z,70.40
2019-04-10T04:09:01.557Z,68.37
2019-04-10T04:11:19.877Z,71.27
2019-04-10T04:13:49.791Z,74.83
2019-04-10T04:16:19.196Z,73.77
2019-04-10T04:18:49.177Z,75.20
2019-04-10T04:21:19.452Z,69.70
2019-04-10T04:23:48.596Z,66.77
2019-04-10T04:26:17.578Z,69.20
2019-04-10T04:28:46.577Z,68.23
2019-04-10T04:31:16.025Z,62.87
2019-04-10T04:33:45.169Z,68.43
2019-04-10T04:36:14.117Z,68.50
2019-04-10T04:38:43.233Z,68.23
2019-04-10T04:41:13.248Z,67.80
2019-04-10T04:43:44.463Z,67.60
2019-04-10T04:46:14.058Z,66.87
2019-04-10T04:48:43.308Z,66.27
2019-04-10T04:51:12.481Z,62.37
2019-04-10T04:53:41.998Z,67.60
2019-04-10T04:56:11.507Z,64.40
2019-04-10T04:58:40.466Z,63.17
2019-04-10T05:01:10.556Z,68.57
2019-04-10T05:03:39.954Z,61.73
2019-04-10T05:06:09.210Z,67.83
2019-04-10T05:08:38.382Z,70.13
2019-04-10T05:11:26.612Z,65.37
2019-04-10T05:13:56.025Z,69.40
2019-04-10T05:16:25.325Z,66.37
2019-04-10T05:18:54.164Z,70.87
2019-04-10T05:21:23.314Z,71.73
2019-04-10T05:23:53.305Z,67.00
2019-04-10T05:26:22.801Z,63.97
2019-04-10T05:28:52.857Z,67.47
2019-04-10T05:31:22.085Z,68.00
2019-04-10T05:33:51.301Z,68.83
2019-04-10T05:36:21.504Z,69.50
2019-04-10T05:38:51.123Z,65.77
2019-04-10T05:41:21.710Z,66.50
2019-04-10T05:43:51.117Z,68.37
2019-04-10T05:46:21.522Z,65.47
2019-04-10T05:48:50.949Z,64.63
2019-04-10T05:51:19.890Z,64.67
2019-04-10T05:53:52.280Z,62.10
2019-04-10T05:56:20.579Z,60.60
2019-04-10T05:58:49.885Z,63.40
2019-04-10T06:01:29.980Z,63.27
2019-04-10T06:03:49.651Z,60.20
2019-04-10T06:06:18.684Z,59.70
2019-04-10T06:08:47.515Z,61.73
2019-04-10T06:11:17.158Z,62.63
2019-04-10T06:13:46.225Z,58.97
2019-04-10T06:16:15.424Z,58.00
2019-04-10T06:18:45.161Z,56.03
2019-04-10T06:21:14.782Z,56.07
2019-04-10T06:24:03.620Z,55.80
2019-04-10T06:26:32.755Z,57.10
2019-04-10T06:29:02.401Z,52.73
2019-04-10T06:31:32.545Z,57.43
2019-04-10T06:34:01.899Z,55.53
2019-04-10T06:36:30.693Z,58.90
2019-04-10T06:39:00.383Z,55.23
2019-04-10T06:41:30.529Z,56.27
2019-04-10T06:43:59.556Z,54.80
2019-04-10T06:46:28.557Z,53.87
2019-04-10T06:48:58.454Z,54.40
2019-04-10T06:51:27.554Z,54.13
2019-04-10T06:54:03.572Z,55.37
2019-04-10T06:56:27.214Z,53.57
2019-04-10T06:58:56.241Z,54.60
2019-04-10T07:01:33.585Z,55.83
2019-04-10T07:04:02.057Z,52.03
2019-04-10T07:06:45.808Z,53.30
2019-04-10T07:08:57.576Z,52.47
2019-04-10T07:11:30.528Z,51.10
2019-04-10T07:13:58.523Z,52.37
2019-04-10T07:16:32.274Z,52.70
2019-04-10T07:19:03.105Z,52.83
2019-04-10T07:21:30.770Z,55.13
2019-04-10T07:24:04.982Z,52.37
2019-04-10T07:26:39.640Z,53.73
2019-04-10T07:29:02.635Z,51.77
2019-04-10T07:31:34.984Z,49.40
2019-04-10T07:34:03.340Z,53.20
2019-04-10T07:36:32.891Z,53.73
2019-04-10T07:39:01.874Z,50.80
2019-04-10T07:41:31.513Z,48.37
2019-04-10T07:44:01.643Z,51.37
2019-04-10T07:46:31.271Z,53.50
2019-04-10T07:49:00.716Z,49.07
2019-04-10T07:51:30.014Z,50.67
2019-04-10T07:53:59.778Z,49.60
2019-04-10T07:56:29.115Z,52.77
2019-04-10T07:58:58.310Z,51.20
2019-04-10T08:01:27.516Z,49.17
2019-04-10T08:03:57.573Z,53.73
2019-04-10T08:06:27.718Z,55.07
2019-04-10T08:08:56.860Z,51.07
2019-04-10T08:11:26.117Z,49.70
2019-04-10T08:13:56.144Z,48.33
2019-04-10T08:16:25.479Z,49.40
2019-04-10T08:18:54.744Z,51.03
2019-04-10T08:21:23.959Z,52.50
2019-04-10T08:23:53.109Z,47.27
2019-04-10T08:26:22.817Z,46.60
2019-04-10T08:28:52.149Z,46.53
2019-04-10T08:31:22.368Z,46.45
2019-04-10T08:33:52.701Z,45.07
2019-04-10T08:36:21.734Z,41.33
2019-04-10T08:38:50.882Z,43.73
2019-04-10T08:41:20.004Z,44.27
2019-04-10T08:43:50.176Z,41.47
2019-04-10T08:46:19.817Z,44.97
2019-04-10T08:48:49.820Z,44.63
2019-04-10T08:51:19.215Z,43.10
2019-04-10T08:53:48.868Z,44.30
2019-04-10T08:56:18.454Z,42.13
2019-04-10T08:58:48.335Z,45.30
2019-04-10T09:01:17.708Z,45.13
2019-04-10T09:03:46.833Z,41.97
2019-04-10T09:06:16.017Z,44.40
2019-04-10T09:08:45.375Z,43.70
2019-04-10T09:11:15.892Z,46.20
2019-04-10T09:13:46.373Z,42.90
2019-04-10T09:16:15.424Z,41.23
2019-04-10T09:18:45.345Z,41.40
2019-04-10T09:21:15.251Z,41.80
2019-04-10T09:23:50.253Z,42.83
2019-04-10T09:26:15.545Z,42.40
2019-04-10T09:28:44.641Z,41.80
2019-04-10T09:31:13.668Z,43.47
2019-04-10T09:33:43.256Z,40.20
2019-04-10T09:36:13.199Z,39.73
2019-04-10T09:38:43.929Z,40.50
2019-04-10T09:41:13.911Z,41.27
2019-04-10T09:43:43.198Z,39.77
2019-04-10T09:46:12.755Z,42.80
2019-04-10T09:48:42.126Z,38.80
2019-04-10T09:51:11.765Z,39.10
2019-04-10T09:53:41.264Z,39.83
2019-04-10T09:56:10.280Z,41.33
2019-04-10T09:58:39.293Z,41.77
2019-04-10T10:01:10.444Z,41.67
2019-04-10T10:03:40.281Z,39.13
2019-04-10T10:06:09.101Z,39.40
2019-04-10T10:08:38.140Z,40.10
2019-04-10T10:11:07.103Z,39.43
2019-04-10T10:13:35.982Z,39.77
2019-04-10T10:16:04.939Z,39.70
2019-04-10T10:18:35.212Z,39.20
2019-04-10T10:21:04.529Z,41.03
2019-04-10T10:23:33.909Z,39.77
2019-04-10T10:26:03.796Z,40.40
2019-04-10T10:28:33.201Z,40.77
2019-04-10T10:31:02.157Z,39.93
2019-04-10T10:33:31.984Z,39.63
2019-04-10T10:36:01.016Z,41.33
2019-04-10T10:38:30.001Z,43.27
2019-04-10T10:40:59.152Z,40.30
2019-04-10T10:43:28.794Z,41.10
2019-04-10T10:45:58.893Z,39.90
2019-04-10T10:48:28.058Z,40.60
2019-04-10T10:50:58.185Z,40.33
2019-04-10T10:53:28.206Z,40.03
2019-04-10T10:55:58.010Z,39.13
2019-04-10T10:58:27.976Z,40.37
2019-04-10T11:00:57.748Z,39.53
2019-04-10T11:03:26.784Z,39.70
2019-04-10T11:05:55.812Z,40.13
2019-04-10T11:08:24.779Z,38.93
2019-04-10T11:10:55.994Z,41.70
2019-04-10T11:13:24.552Z,39.97
2019-04-10T11:15:53.465Z,38.23
2019-04-10T11:18:22.540Z,40.47
2019-04-10T11:20:52.344Z,40.73
2019-04-10T11:23:22.127Z,37.87
2019-04-10T11:25:52.770Z,40.57
2019-04-10T11:28:28.673Z,39.10
2019-04-10T11:30:53.616Z,37.40
2019-04-10T11:33:22.653Z,39.13
2019-04-10T11:35:53.332Z,38.23
2019-04-10T11:38:22.433Z,40.43
2019-04-10T11:40:52.168Z,39.87
2019-04-10T11:43:24.401Z,37.73
2019-04-10T11:45:56.156Z,37.80
2019-04-10T11:48:25.314Z,39.83
2019-04-10T11:50:58.951Z,39.30
2019-04-10T11:53:27.163Z,37.90
2019-04-10T11:55:57.007Z,36.70
2019-04-10T11:58:28.964Z,37.03
2019-04-10T12:00:59.479Z,36.97
2019-04-10T12:03:28.333Z,36.57
2019-04-10T12:05:59.656Z,36.43
2019-04-10T12:08:51.718Z,36.50
2019-04-10T12:13:27.838Z,37.50
2019-04-10T12:15:56.837Z,38.60
2019-04-10T12:18:26.758Z,36.17
2019-04-10T12:20:56.165Z,37.53
2019-04-10T12:23:25.262Z,35.27
2019-04-10T12:25:54.211Z,35.73
2019-04-10T12:28:23.280Z,34.93
2019-04-10T12:30:53.310Z,36.20
2019-04-10T12:33:22.446Z,34.33
2019-04-10T12:35:51.513Z,34.53
2019-04-10T12:38:20.531Z,36.30
2019-04-10T12:40:49.488Z,34.27
2019-04-10T12:43:18.780Z,36.07
2019-04-10T12:45:48.605Z,32.10
2019-04-10T12:48:18.758Z,33.17
2019-04-10T12:50:47.957Z,34.30
2019-04-10T12:53:16.929Z,33.57
2019-04-10T12:55:46.177Z,31.17
2019-04-10T12:58:17.486Z,32.67
2019-04-10T13:00:45.896Z,31.33
2019-04-10T13:03:14.872Z,32.73
2019-04-10T13:06:05.577Z,31.60
2019-04-10T13:08:54.368Z,32.60
2019-04-10T13:11:05.901Z,30.70
2019-04-10T13:13:35.815Z,31.33
2019-04-10T13:16:05.223Z,29.10
2019-04-10T13:18:34.381Z,31.40
2019-04-10T13:21:04.259Z,29.40
2019-04-10T13:23:33.368Z,30.70
2019-04-10T13:26:05.113Z,29.70
2019-04-10T13:28:33.816Z,28.80
2019-04-10T13:31:03.600Z,29.27
2019-04-10T13:33:32.986Z,26.97
2019-04-10T13:36:03.047Z,27.13
2019-04-10T13:38:33.985Z,27.47
2019-04-10T13:41:04.086Z,27.50
2019-04-10T13:43:33.896Z,27.83
2019-04-10T13:46:02.960Z,28.03
2019-04-10T13:48:32.067Z,26.07
2019-04-10T13:51:01.273Z,27.63
2019-04-10T13:53:30.504Z,25.90
2019-04-10T13:55:59.457Z,27.20
2019-04-10T13:58:28.970Z,26.90
2019-04-10T14:00:58.797Z,25.73
2019-04-10T14:03:28.102Z,24.00
2019-04-10T14:05:57.147Z,24.10
2019-04-10T14:08:40.592Z,24.70
2019-04-10T14:10:57.328Z,24.67
2019-04-10T14:13:27.600Z,24.20
2019-04-10T14:15:58.414Z,22.90
2019-04-10T14:18:27.432Z,25.37
2019-04-10T14:20:57.567Z,22.07
2019-04-10T14:23:31.369Z,22.77
2019-04-10T14:26:25.212Z,21.90
2019-04-10T14:28:55.428Z,21.00
2019-04-10T14:31:28.684Z,22.30
2019-04-10T14:33:58.390Z,23.63
2019-04-10T14:36:27.678Z,21.90
2019-04-10T14:39:09.467Z,21.93
2019-04-10T14:41:27.613Z,21.87
2019-04-10T14:43:57.735Z,19.20
2019-04-10T14:46:29.957Z,21.20
2019-04-10T14:48:59.035Z,19.97
2019-04-10T14:51:28.267Z,21.17
2019-04-10T14:53:57.542Z,21.50
2019-04-10T14:56:26.528Z,21.70
2019-04-10T14:58:55.595Z,20.20
2019-04-10T15:01:26.205Z,19.57
2019-04-10T15:03:55.245Z,20.23
2019-04-10T15:06:24.402Z,20.30
2019-04-10T15:08:53.390Z,21.27
2019-04-10T15:11:22.523Z,19.90
2019-04-10T15:13:51.884Z,19.60
2019-04-10T15:16:21.077Z,19.73
2019-04-10T15:18:50.061Z,19.93
2019-04-10T15:21:19.172Z,21.47
2019-04-10T15:23:48.138Z,19.60
2019-04-10T15:26:17.153Z,20.13
2019-04-10T15:28:46.181Z,21.07
2019-04-10T15:31:15.306Z,20.77
2019-04-10T15:33:44.474Z,20.57
2019-04-10T15:36:13.785Z,20.27
2019-04-10T15:38:42.912Z,20.30
2019-04-10T15:41:11.806Z,20.90
2019-04-10T15:43:41.284Z,20.03
2019-04-10T15:46:10.797Z,19.60
2019-04-10T15:48:39.912Z,19.33
2019-04-10T15:51:09.029Z,21.33
2019-04-10T15:53:38.149Z,20.83
2019-04-10T15:56:08.203Z,20.20
2019-04-10T15:58:37.418Z,19.90
2019-04-10T16:01:09.781Z,19.80
2019-04-10T16:03:39.077Z,20.43
2019-04-10T16:06:08.238Z,20.70
2019-04-10T16:08:38.505Z,19.80
2019-04-10T16:11:25.805Z,19.80
2019-04-10T16:13:56.939Z,20.00
2019-04-10T16:16:48.848Z,19.27
2019-04-10T16:19:52.404Z,19.67
2019-04-10T16:22:45.187Z,18.70
2019-04-10T16:25:27.887Z,19.47
2019-04-10T16:27:57.961Z,18.63
2019-04-10T16:30:27.389Z,18.93
2019-04-10T16:32:56.571Z,19.97
2019-04-10T16:35:25.501Z,21.57
2019-04-10T16:37:54.573Z,20.50
2019-04-10T16:40:23.621Z,20.77
2019-04-10T16:42:52.645Z,22.50
2019-04-10T16:45:22.359Z,22.00
2019-04-10T16:47:52.592Z,20.83
2019-04-10T16:50:21.834Z,20.10
2019-04-10T16:52:51.460Z,22.00
2019-04-10T16:55:20.722Z,20.93
2019-04-10T16:57:49.879Z,21.93
2019-04-10T17:00:20.585Z,22.20
2019-04-10T17:02:50.673Z,21.83
2019-04-10T17:05:20.647Z,24.53
2019-04-10T17:07:49.805Z,22.97
2019-04-10T17:10:24.552Z,22.50
2019-04-10T17:12:53.840Z,24.10
2019-04-10T17:15:23.902Z,23.23
2019-04-10T17:17:53.288Z,25.13
2019-04-10T17:20:22.583Z,23.93
2019-04-10T17:22:52.087Z,23.90
2019-04-10T17:25:22.164Z,24.57
2019-04-10T17:27:52.067Z,23.50
2019-04-10T17:30:21.962Z,23.53
2019-04-10T17:32:52.161Z,23.73
2019-04-10T17:35:21.539Z,25.13
2019-04-10T17:37:50.737Z,24.97
2019-04-10T17:40:29.815Z,23.60
2019-04-10T17:42:52.743Z,23.87
2019-04-10T17:45:22.995Z,24.10
2019-04-10T17:47:53.615Z,24.27
2019-04-10T17:50:24.507Z,22.77
2019-04-10T17:52:53.946Z,23.10
2019-04-10T17:55:23.247Z,24.40
2019-04-10T17:58:11.707Z,24.77
2019-04-10T18:00:55.704Z,25.13
2019-04-10T18:03:47.216Z,23.53
2019-04-10T18:06:19.369Z,22.23
2019-04-10T18:09:01.173Z,24.13
2019-04-10T18:11:41.917Z,22.30
2019-04-10T18:14:22.818Z,23.20
2019-04-10T18:17:04.491Z,23.07
2019-04-10T18:19:46.165Z,24.23
2019-04-10T18:22:27.242Z,24.00
2019-04-10T18:25:09.624Z,21.40
2019-04-10T18:27:50.681Z,23.30
2019-04-10T18:30:34.052Z,22.50
2019-04-10T18:33:14.598Z,24.60
2019-04-10T18:35:55.358Z,23.50
2019-04-10T18:38:35.541Z,22.90
2019-04-10T18:47:27.535Z,24.47
2019-04-10T18:50:16.128Z,22.60
2019-04-10T18:53:05.743Z,24.00
2019-04-10T18:55:56.606Z,24.77
2019-04-10T18:59:04.830Z,25.80
2019-04-10T19:02:11.964Z,24.17
2019-04-10T19:05:19.395Z,23.33
2019-04-10T19:11:21.989Z,24.47
2019-04-10T19:14:06.420Z,25.10
2019-04-10T19:19:49.020Z,26.00
2019-04-10T19:22:37.285Z,25.57
2019-04-10T19:25:18.780Z,26.27
2019-04-10T19:28:00.354Z,24.63
2019-04-10T19:30:45.652Z,25.50
2019-04-10T19:33:26.588Z,25.97
2019-04-10T19:36:07.805Z,24.53
2019-04-10T19:38:49.651Z,25.40
2019-04-10T19:41:35.834Z,24.70
2019-04-10T19:44:14.856Z,25.07
2019-04-10T19:46:55.742Z,24.53
2019-04-10T19:49:37.061Z,24.23
2019-04-10T19:52:20.262Z,24.97
2019-04-10T19:55:00.826Z,24.27
2019-04-10T19:57:42.121Z,25.23
2019-04-10T20:00:28.404Z,26.50
2019-04-10T20:03:08.914Z,24.43
2019-04-10T20:05:51.234Z,23.50
2019-04-10T20:08:33.391Z,24.27
2019-04-10T20:11:14.982Z,23.60
2019-04-10T20:13:57.040Z,23.30
2019-04-10T20:16:38.105Z,22.87
2019-04-10T20:19:18.802Z,24.37
2019-04-10T20:22:00.677Z,22.70
2019-04-10T20:24:42.902Z,23.60
2019-04-10T20:27:24.337Z,23.17
2019-04-10T20:30:05.690Z,23.50
2019-04-10T20:32:46.613Z,22.40
2019-04-10T20:35:28.630Z,23.00
2019-04-10T20:38:09.467Z,20.13
2019-04-10T20:40:51.943Z,20.90
2019-04-10T20:43:33.668Z,21.33
2019-04-10T20:46:14.856Z,21.40
2019-04-10T20:48:57.141Z,22.13
2019-04-10T20:51:39.798Z,19.23
2019-04-10T20:54:21.021Z,20.93
2019-04-10T20:57:04.406Z,18.60
2019-04-10T20:59:45.125Z,19.10
2019-04-10T21:02:26.524Z,18.47
2019-04-10T21:05:09.676Z,20.10
2019-04-10T21:07:50.210Z,18.10
2019-04-10T21:10:31.457Z,17.33
2019-04-10T21:13:12.989Z,16.90
2019-04-10T21:15:54.891Z,16.03
2019-04-10T21:18:35.630Z,14.83
2019-04-10T21:21:16.463Z,15.00
2019-04-10T21:23:57.550Z,16.83
2019-04-10T21:26:38.799Z,15.67
2019-04-10T21:29:39.116Z,16.27
2019-04-10T21:32:44.709Z,14.13
2019-04-10T21:35:30.271Z,17.17
2019-04-10T21:38:11.045Z,15.47
2019-04-10T21:40:51.925Z,14.30
2019-04-10T21:43:33.057Z,14.77
2019-04-10T21:46:14.459Z,14.40
2019-04-10T21:48:55.873Z,16.30
2019-04-10T21:51:37.050Z,15.07
2019-04-10T21:54:18.486Z,14.83
2019-04-10T21:56:59.829Z,15.20
2019-04-10T21:59:41.059Z,13.47
2019-04-10T22:02:22.377Z,15.03
2019-04-10T22:05:04.042Z,16.70
2019-04-10T22:08:05.011Z,14.53
2019-04-10T22:10:48.233Z,14.90
2019-04-10T22:13:30.182Z,14.53
2019-04-10T22:16:13.594Z,13.47
2019-04-10T22:18:54.728Z,14.47
2019-04-10T22:21:35.700Z,14.53
2019-04-10T22:24:16.495Z,15.20
2019-04-10T22:26:58.538Z,13.30
2019-04-10T22:29:39.435Z,13.60
2019-04-10T22:32:20.257Z,13.50
2019-04-10T22:35:01.080Z,14.80
2019-04-10T22:37:42.062Z,14.50
2019-04-10T22:40:23.609Z,12.37
2019-04-10T22:43:05.442Z,14.00
2019-04-10T22:45:46.601Z,13.47
2019-04-10T22:48:28.592Z,12.10
2019-04-10T22:51:11.170Z,13.13
2019-04-10T22:53:51.953Z,12.27
2019-04-10T22:56:33.663Z,13.17
2019-04-10T22:59:15.576Z,13.00
2019-04-10T23:02:02.514Z,14.33
2019-04-10T23:04:39.131Z,12.90
2019-04-10T23:07:20.438Z,12.30
2019-04-10T23:10:00.957Z,11.70
2019-04-10T23:12:52.200Z,12.00
2019-04-10T23:15:25.231Z,12.93
2019-04-10T23:18:07.538Z,12.30
2019-04-10T23:20:48.813Z,11.63
2019-04-10T23:23:28.200Z,12.20
2019-04-10T23:26:17.321Z,11.07
2019-04-10T23:29:06.341Z,11.67
2019-04-10T23:31:47.960Z,12.00
2019-04-10T23:34:30.470Z,12.47
2019-04-10T23:37:12.836Z,11.60
2019-04-10T23:39:54.538Z,11.93
2019-04-10T23:42:35.792Z,12.83
2019-04-10T23:45:17.625Z,12.13
2019-04-10T23:47:58.462Z,11.90
2019-04-10T23:50:39.223Z,11.40
2019-04-10T23:53:20.456Z,10.67
2019-04-10T23:55:50.321Z,10.70
2019-04-10T23:58:20.459Z,11.93
